Terminal Aerodrome Forecast
Issued by NWS Louisville, KY

Home | Current Version | Previous Version | Text Only | Print | Product List | Glossary Off
Versions: 1 2 3 4 5 6 7 8 9 10 11 12 13 14 15

000
FTUS43 KLMK 090525
TAFSDF
TAF
KSDF 090525Z 0906/1012 31010KT P6SM -SN BKN028 OVC035
     FM091000 30009KT P6SM BKN023 OVC028
     FM091600 29007KT P6SM SCT030
     FM100200 30005KT P6SM BKN150=

USA.gov is the U.S. government's official web portal to all federal, state and local government web resources and services.